Airfield :
LOGIN :

Register | Disclaimer

   EN    FR    IT 

 










Legend :    VFR   Marginal VFR   IFR   Intensive IFR   Very Intensive IFR
Visi :
Ceiling :
>= 8 km
>= 3000ft
5 to 8 km
1000 to 3000 ft
1500m to 5 km
500 to 1000 ft
800 to 1500m
200 to 500 ft
< 800m
< 200 ft
Symbols :   Thunderstorms  Fog  Heavy snow  Heavy precipitations  Wind > 20 kt
SIGMETs :     Misc.  Thunderstorms  Icing  Turbulence  Mountain Waves  Volcanic Ashes






- Airport Elevation : 172 ft
- IATA code : ODS


UKOO - Odesa

CURRENT METAR :
  • 281600Z 34004MPS 5000 BR OVC004 04/04 Q1009 R34/190058 NOSIG

EXPIRED METARs :
  • 281530Z 33004MPS 2500 1200S R34/1300N BR OVC002 04/04 Q1009 R34/290054 NOSIG
  • 281500Z 33004MPS 0900 0700SE R34/1100U FG VV002 04/04 Q1009 R34/290054 NOSIG
  • 281451Z 34004MPS 0600 0500SE R34/0900N FG VV001 04/04 Q1009 R34/290054 NOSIG
  • 281440Z 34003MPS 0550 0500SE R34/0800N FG VV002 04/04 Q1009 R34/290054 NOSIG
  • 281430Z 34003MPS 0500 0450SE R34/0700N FG VV001 04/04 Q1009 R34/290054 NOSIG
  • 281410Z 36003MPS 0500 0450SE R34/0700N FG VV001 04/04 Q1008 R34/290054 NOSIG
  • 281400Z 34004MPS 0550 0450SE R34/0750N FG VV002 04/04 Q1008 R34/290054 NOSIG
  • 281349Z 34004MPS 0550 0450SE R34/0750D FG VV001 04/04 Q1008 R34/290054 NOSIG
  • 281330Z 36004MPS 0650 0600SE R34/0900N FG VV001 04/04 Q1008 R34/290054 NOSIG
  • 281308Z 01004MPS 340V040 0900 0800SE R34/1000U FG VV001 04/04 Q1008 R34/290054 NOSIG

TAF AMD TAF UKOO
Valid from the 28 at 13:00 until the 29 at 12:00 UTC


281352Z 2813/2912 36003G08MPS 0300 -DZ FG VV001 TX06/2912Z TN01/2903Z
TEMPO 2813/2908 18003MPS 1400 BR OVC003 SCT015CB
BECMG 2908/2909 18006G13MPS 2100 BR SCT004 BKN007 SCT015CB



MET'MAP, your aeronautical weather chart ! - Copyright ORBIFLY December 2007 - Disclaimer

ORBIFLY MET'MAP TEAM :

Programming & Development : Alexandra Zaïnal
Concept & original design : Baudouin d'Aumeries
Assistance for programming : Marc-Olivier Méhu
Technical & hardware support : Manuel Goepfert

Contact : metmap@orbifly.com




SOURCES & CREDITS :

   NOAA